• Join FlightAware (Why Join?)
  • Login
  • US Flag 
09:07PM EDT


 

Airport Tracker/Info


-or-


 

Live Flight TrackerFlight Track Log ✈ ZS-SNC ✈ 19-Apr-2013 ✈ FAOR / JNB - DNMM / LOS

Flight Track Log - Related Links

Times and Time Zones

All times are in EDT time to prevent confusion due to time zone crossing. See the ZS-SNC flight status page for this flight to view local times or setup timezone preferences in your user account.

Time Position Orientation Groundspeed Altitude Reporting Facility
EDT Latitude Longitude Course Direction KTS MPH feet Rate Location/Type
08:30AM -25.4228 27.5829 320° Northwest  Level Estimated
08:31AM -25.3330 27.5006 320° Northwest  Level Estimated
08:32AM -25.2432 27.4184 320° Northwest  Level Estimated
08:33AM -25.1534 27.3363 320° Northwest  Level Estimated
08:34AM -25.0635 27.2543 320° Northwest  Level Estimated
08:35AM -24.9736 27.1725 320° Northwest  Level Estimated
08:36AM -24.8836 27.0907 321° Northwest  Level Estimated
08:37AM -24.7935 27.0091 321° Northwest  Level Estimated
08:38AM -24.7035 26.9277 321° Northwest  Level Estimated
08:39AM -24.6133 26.8463 321° Northwest  Level Estimated
08:40AM -24.5232 26.7650 321° Northwest  Level Estimated
08:41AM -24.4330 26.6839 321° Northwest  Level Estimated
08:42AM -24.3427 26.6029 321° Northwest  Level Estimated
08:43AM -24.2525 26.5220 321° Northwest  Level Estimated
08:44AM -24.1621 26.4412 321° Northwest  Level Estimated
08:45AM -24.0718 26.3605 321° Northwest  Level Estimated
08:46AM -23.9813 26.2799 321° Northwest  Level Estimated
08:47AM -23.8909 26.1995 321° Northwest  Level Estimated
08:48AM -23.8004 26.1192 321° Northwest  Level Estimated
08:49AM -23.7098 26.0389 321° Northwest  Level Estimated
08:50AM -23.6192 25.9588 321° Northwest  Level Estimated
08:51AM -23.5286 25.8788 321° Northwest  Level Estimated
08:52AM -23.4380 25.7989 321° Northwest  Level Estimated
08:53AM -23.3473 25.7192 321° Northwest  Level Estimated
08:54AM -23.2565 25.6395 321° Northwest  Level Estimated
08:55AM -23.1657 25.5599 321° Northwest  Level Estimated
08:56AM -23.0749 25.4805 321° Northwest  Level Estimated
08:57AM -22.9840 25.4011 321° Northwest  Level Estimated
08:58AM -22.8931 25.3219 321° Northwest  Level Estimated
08:59AM -22.8022 25.2427 321° Northwest  Level Estimated
09:00AM -22.7112 25.1637 321° Northwest  Level Estimated
09:01AM -22.6202 25.0848 321° Northwest  Level Estimated
09:02AM -22.5291 25.0060 321° Northwest  Level Estimated
09:03AM -22.4380 24.9272 321° Northwest  Level Estimated
09:04AM -22.3469 24.8486 321° Northwest  Level Estimated
09:05AM -22.2557 24.7701 321° Northwest  Level Estimated
09:06AM -22.1645 24.6917 321° Northwest  Level Estimated
09:07AM -22.0733 24.6134 321° Northwest  Level Estimated
09:08AM -21.9820 24.5352 322° Northwest  Level Estimated
09:09AM -21.8906 24.4571 322° Northwest  Level Estimated
09:10AM -21.7993 24.3791 322° Northwest  Level Estimated
09:11AM -21.7079 24.3012 322° Northwest  Level Estimated
09:12AM -21.6165 24.2234 322° Northwest  Level Estimated
09:13AM -21.5250 24.1456 322° Northwest  Level Estimated
09:14AM -21.4335 24.0680 322° Northwest  Level Estimated
09:15AM -21.3419 23.9905 322° Northwest  Level Estimated
09:16AM -21.2504 23.9131 322° Northwest  Level Estimated
09:17AM -21.1588 23.8358 322° Northwest  Level Estimated
09:18AM -21.0671 23.7586 322° Northwest  Level Estimated
09:19AM -20.9754 23.6814 322° Northwest  Level Estimated
09:20AM -20.8837 23.6044 322° Northwest  Level Estimated
09:21AM -20.7920 23.5274 322° Northwest  Level Estimated
09:22AM -20.7002 23.4506 322° Northwest  Level Estimated
09:23AM -20.6083 23.3738 322° Northwest  Level Estimated
09:24AM -20.5165 23.2972 322° Northwest  Level Estimated
09:25AM -20.4246 23.2206 322° Northwest  Level Estimated
09:26AM -20.3327 23.1441 322° Northwest  Level Estimated
09:27AM -20.2407 23.0677 322° Northwest  Level Estimated
09:28AM -20.1487 22.9914 322° Northwest  Level Estimated
09:29AM -20.0567 22.9152 322° Northwest  Level Estimated
09:30AM -19.9647 22.8391 322° Northwest  Level Estimated
09:31AM -19.8726 22.7631 322° Northwest  Level Estimated
09:32AM -19.7805 22.6871 322° Northwest  Level Estimated
09:33AM -19.6883 22.6113 322° Northwest  Level Estimated
09:34AM -19.5961 22.5355 322° Northwest  Level Estimated
09:35AM -19.5039 22.4598 322° Northwest  Level Estimated
09:36AM -19.4117 22.3842 322° Northwest  Level Estimated
09:37AM -19.3194 22.3087 322° Northwest  Level Estimated
09:38AM -19.2271 22.2333 322° Northwest  Level Estimated
09:39AM -19.1348 22.1580 322° Northwest  Level Estimated
09:40AM -19.0424 22.0827 322° Northwest  Level Estimated
09:41AM -18.9500 22.0075 322° Northwest  Level Estimated
09:42AM -18.8576 21.9325 322° Northwest  Level Estimated
09:43AM -18.7651 21.8575 322° Northwest  Level Estimated
09:44AM -18.6726 21.7825 322° Northwest  Level Estimated
09:45AM -18.5801 21.7077 323° Northwest  Level Estimated
09:46AM -18.4876 21.6329 323° Northwest  Level Estimated
09:47AM -18.3950 21.5583 323° Northwest  Level Estimated
09:48AM -18.3024 21.4837 323° Northwest  Level Estimated
09:49AM -18.2097 21.4091 323° Northwest  Level Estimated
09:50AM -18.1171 21.3347 323° Northwest  Level Estimated
09:51AM -18.0244 21.2603 323° Northwest  Level Estimated
09:52AM -17.9317 21.1861 323° Northwest  Level Estimated
09:53AM -17.8389 21.1119 323° Northwest  Level Estimated
09:54AM -17.7461 21.0377 323° Northwest  Level Estimated
09:55AM -17.6533 20.9637 323° Northwest  Level Estimated
09:56AM -17.5605 20.8897 323° Northwest  Level Estimated
09:57AM -17.4676 20.8158 323° Northwest  Level Estimated
09:58AM -17.3748 20.7420 323° Northwest  Level Estimated
09:59AM -17.2818 20.6682 323° Northwest  Level Estimated
10:00AM -17.1889 20.5946 323° Northwest  Level Estimated
10:01AM -17.0959 20.5210 323° Northwest  Level Estimated
10:02AM -17.0029 20.4474 323° Northwest  Level Estimated
10:03AM -16.9099 20.3740 323° Northwest  Level Estimated
10:04AM -16.8169 20.3006 323° Northwest  Level Estimated
10:05AM -16.7238 20.2273 323° Northwest  Level Estimated
10:06AM -16.6307 20.1541 323° Northwest  Level Estimated
10:07AM -16.5376 20.0809 323° Northwest  Level Estimated
10:08AM -16.4444 20.0078 323° Northwest  Level Estimated
10:09AM -16.3513 19.9348 323° Northwest  Level Estimated
10:10AM -16.2581 19.8618 323° Northwest  Level Estimated
10:11AM -16.1648 19.7889 323° Northwest  Level Estimated
10:12AM -16.0716 19.7161 323° Northwest  Level Estimated
10:13AM -15.9783 19.6433 323° Northwest  Level Estimated
10:14AM -15.8850 19.5707 323° Northwest  Level Estimated
10:15AM -15.7917 19.4981 323° Northwest  Level Estimated
10:16AM -15.6983 19.4255 323° Northwest  Level Estimated
10:17AM -15.6050 19.3530 323° Northwest  Level Estimated
10:18AM -15.5116 19.2806 323° Northwest  Level Estimated
10:19AM -15.4182 19.2083 323° Northwest  Level Estimated
10:20AM -15.3247 19.1360 323° Northwest  Level Estimated
10:21AM -15.2313 19.0637 323° Northwest  Level Estimated
10:22AM -15.1378 18.9916 323° Northwest  Level Estimated
10:23AM -15.0443 18.9195 323° Northwest  Level Estimated
10:24AM -14.9507 18.8475 323° Northwest  Level Estimated
10:25AM -14.8572 18.7755 323° Northwest  Level Estimated
10:26AM -14.7636 18.7036 323° Northwest  Level Estimated
10:27AM -14.6700 18.6318 323° Northwest  Level Estimated
10:28AM -14.5764 18.5600 323° Northwest  Level Estimated
10:29AM -14.4827 18.4883 323° Northwest  Level Estimated
10:30AM -14.3891 18.4166 323° Northwest  Level Estimated
10:31AM -14.2954 18.3450 323° Northwest  Level Estimated
10:32AM -14.2017 18.2735 323° Northwest  Level Estimated
10:33AM -14.1079 18.2020 324° Northwest  Level Estimated
10:34AM -14.0142 18.1306 324° Northwest  Level Estimated
10:35AM -13.9204 18.0592 324° Northwest  Level Estimated
10:36AM -13.8266 17.9879 324° Northwest  Level Estimated
10:37AM -13.7328 17.9166 324° Northwest  Level Estimated
10:38AM -13.6390 17.8454 324° Northwest  Level Estimated
10:39AM -13.5451 17.7743 324° Northwest  Level Estimated
10:40AM -13.4513 17.7032 324° Northwest  Level Estimated
10:41AM -13.3574 17.6322 324° Northwest  Level Estimated
10:42AM -13.2635 17.5613 324° Northwest  Level Estimated
10:43AM -13.1695 17.4903 324° Northwest  Level Estimated
10:44AM -13.0756 17.4195 324° Northwest  Level Estimated
10:45AM -12.9816 17.3487 324° Northwest  Level Estimated
10:46AM -12.8876 17.2779 324° Northwest  Level Estimated
10:47AM -12.7936 17.2072 324° Northwest  Level Estimated
10:48AM -12.6996 17.1366 324° Northwest  Level Estimated
10:49AM -12.6055 17.0660 324° Northwest  Level Estimated
10:50AM -12.5115 16.9955 324° Northwest  Level Estimated
10:51AM -12.4174 16.9250 324° Northwest  Level Estimated
10:52AM -12.3233 16.8545 324° Northwest  Level Estimated
10:53AM -12.2292 16.7841 324° Northwest  Level Estimated
10:54AM -12.1350 16.7138 324° Northwest  Level Estimated
10:55AM -12.0409 16.6435 324° Northwest  Level Estimated
10:56AM -11.9467 16.5733 324° Northwest  Level Estimated
10:57AM -11.8525 16.5031 324° Northwest  Level Estimated
10:58AM -11.7583 16.4329 324° Northwest  Level Estimated
10:59AM -11.6641 16.3629 324° Northwest  Level Estimated
11:00AM -11.5698 16.2928 324° Northwest  Level Estimated
11:01AM -11.4756 16.2228 324° Northwest  Level Estimated
11:02AM -11.3813 16.1528 324° Northwest  Level Estimated
11:03AM -11.2870 16.0829 324° Northwest  Level Estimated
11:04AM -11.1927 16.0131 324° Northwest  Level Estimated
11:05AM -11.0984 15.9433 324° Northwest  Level Estimated
11:06AM -11.0040 15.8735 324° Northwest  Level Estimated
11:07AM -10.9097 15.8038 324° Northwest  Level Estimated
11:08AM -10.8153 15.7341 324° Northwest  Level Estimated
11:09AM -10.7209 15.6645 324° Northwest  Level Estimated
11:10AM -10.6265 15.5949 324° Northwest  Level Estimated
11:11AM -10.5321 15.5253 324° Northwest  Level Estimated
11:12AM -10.4376 15.4558 324° Northwest  Level Estimated
11:13AM -10.3432 15.3863 324° Northwest  Level Estimated
11:14AM -10.2487 15.3169 324° Northwest  Level Estimated
11:15AM -10.1543 15.2475 324° Northwest  Level Estimated
11:16AM -10.0598 15.1782 324° Northwest  Level Estimated
11:17AM -9.9653 15.1089 324° Northwest  Level Estimated
11:18AM -9.8707 15.0396 324° Northwest  Level Estimated
11:19AM -9.7762 14.9704 324° Northwest  Level Estimated
11:20AM -9.6817 14.9012 324° Northwest  Level Estimated
11:21AM -9.5871 14.8321 324° Northwest  Level Estimated
11:22AM -9.4925 14.7630 324° Northwest  Level Estimated
11:23AM -9.3979 14.6939 324° Northwest  Level Estimated
11:24AM -9.3033 14.6249 324° Northwest  Level Estimated
11:25AM -9.2087 14.5559 324° Northwest  Level Estimated
11:26AM -9.1141 14.4870 324° Northwest  Level Estimated
11:27AM -9.0194 14.4180 324° Northwest  Level Estimated
11:28AM -8.9248 14.3492 324° Northwest  Level Estimated
11:29AM -8.8301 14.2803 324° Northwest  Level Estimated
11:30AM -8.7354 14.2115 324° Northwest  Level Estimated
11:31AM -8.6407 14.1427 324° Northwest  Level Estimated
11:32AM -8.5460 14.0740 324° Northwest  Level Estimated
11:33AM -8.4513 14.0053 324° Northwest  Level Estimated
11:34AM -8.3566 13.9366 324° Northwest  Level Estimated
11:35AM -8.2618 13.8680 324° Northwest  Level Estimated
11:36AM -8.1671 13.7993 324° Northwest  Level Estimated
11:37AM -8.0723 13.7308 324° Northwest  Level Estimated
11:38AM -7.9775 13.6622 324° Northwest  Level Estimated
11:39AM -7.8827 13.5937 324° Northwest  Level Estimated
11:40AM -7.7879 13.5253 324° Northwest  Level Estimated
11:41AM -7.6931 13.4568 324° Northwest  Level Estimated
11:42AM -7.5983 13.3884 324° Northwest  Level Estimated
11:43AM -7.5035 13.3200 324° Northwest  Level Estimated
11:44AM -7.4086 13.2516 324° Northwest  Level Estimated
11:45AM -7.3138 13.1833 324° Northwest  Level Estimated
11:46AM -7.2189 13.1150 324° Northwest  Level Estimated
11:47AM -7.1241 13.0467 324° Northwest  Level Estimated
11:48AM -7.0292 12.9785 324° Northwest  Level Estimated
11:49AM -6.9343 12.9103 324° Northwest  Level Estimated
11:50AM -6.8394 12.8421 324° Northwest  Level Estimated
11:51AM -6.7445 12.7739 325° Northwest  Level Estimated
11:52AM -6.6495 12.7058 325° Northwest  Level Estimated
11:53AM -6.5546 12.6377 325° Northwest  Level Estimated
11:54AM -6.4597 12.5696 325° Northwest  Level Estimated
11:55AM -6.3647 12.5016 325° Northwest  Level Estimated
11:56AM -6.2698 12.4335 325° Northwest  Level Estimated
11:57AM -6.1748 12.3655 325° Northwest  Level Estimated
11:58AM -6.0798 12.2976 325° Northwest  Level Estimated
11:59AM -5.9848 12.2296 325° Northwest  Level Estimated
12:00PM -5.8898 12.1617 325° Northwest  Level Estimated
12:01PM -5.7948 12.0938 325° Northwest  Level Estimated
12:02PM -5.6998 12.0259 325° Northwest  Level Estimated
12:03PM -5.6048 11.9580 325° Northwest  Level Estimated
12:04PM -5.5098 11.8902 325° Northwest  Level Estimated
12:05PM -5.4148 11.8223 325° Northwest  Level Estimated
12:06PM -5.3197 11.7545 325° Northwest  Level Estimated
12:07PM -5.2247 11.6868 325° Northwest  Level Estimated
12:08PM -5.1296 11.6190 325° Northwest  Level Estimated
12:09PM -5.0345 11.5513 325° Northwest  Level Estimated
12:10PM -4.9395 11.4835 325° Northwest  Level Estimated
12:11PM -4.8444 11.4158 325° Northwest  Level Estimated
12:12PM -4.7493 11.3482 325° Northwest  Level Estimated
12:13PM -4.6542 11.2805 325° Northwest  Level Estimated
12:14PM -4.5591 11.2129 325° Northwest  Level Estimated
12:15PM -4.4640 11.1452 325° Northwest  Level Estimated
12:16PM -4.3689 11.0776 325° Northwest  Level Estimated
12:17PM -4.2738 11.0100 325° Northwest  Level Estimated
12:18PM -4.1787 10.9425 325° Northwest  Level Estimated
12:19PM -4.0835 10.8749 325° Northwest  Level Estimated
12:20PM -3.9884 10.8074 325° Northwest  Level Estimated
12:21PM -3.8933 10.7399 325° Northwest  Level Estimated
12:22PM -3.7981 10.6723 325° Northwest  Level Estimated
12:23PM -3.7030 10.6048 325° Northwest  Level Estimated
12:24PM -3.6078 10.5374 325° Northwest  Level Estimated
12:25PM -3.5127 10.4699 325° Northwest  Level Estimated
12:26PM -3.4175 10.4024 325° Northwest  Level Estimated
12:27PM -3.3224 10.3350 325° Northwest  Level Estimated
12:28PM -3.2272 10.2676 325° Northwest  Level Estimated
12:29PM -3.1320 10.2002 325° Northwest  Level Estimated
12:30PM -3.0368 10.1328 325° Northwest  Level Estimated
12:31PM -2.9416 10.0654 325° Northwest  Level Estimated
12:32PM -2.8464 9.9980 325° Northwest  Level Estimated
12:33PM -2.7513 9.9306 325° Northwest  Level Estimated
12:34PM -2.6560 9.8633 325° Northwest  Level Estimated
12:35PM -2.5608 9.7959 325° Northwest  Level Estimated
12:36PM -2.4657 9.7286 325° Northwest  Level Estimated
12:37PM -2.3704 9.6613 325° Northwest  Level Estimated
12:38PM -2.2752 9.5940 325° Northwest  Level Estimated
12:39PM -2.1800 9.5266 325° Northwest  Level Estimated
12:40PM -2.0848 9.4593 325° Northwest  Level Estimated
12:41PM -1.9896 9.3920 325° Northwest  Level Estimated
12:42PM -1.8944 9.3248 325° Northwest  Level Estimated
12:43PM -1.7991 9.2575 325° Northwest  Level Estimated
12:44PM -1.7039 9.1902 325° Northwest  Level Estimated
12:45PM -1.6087 9.1230 325° Northwest  Level Estimated
12:46PM -1.5134 9.0557 325° Northwest  Level Estimated
12:47PM -1.4182 8.9885 325° Northwest  Level Estimated
12:48PM -1.3230 8.9212 325° Northwest  Level Estimated
12:49PM -1.2277 8.8540 325° Northwest  Level Estimated
12:50PM -1.1325 8.7867 325° Northwest  Level Estimated
12:51PM -1.0373 8.7195 325° Northwest  Level Estimated
12:52PM -0.9420 8.6523 325° Northwest  Level Estimated
12:53PM -0.8468 8.5851 325° Northwest  Level Estimated
12:54PM -0.7515 8.5178 325° Northwest  Level Estimated
12:55PM -0.6563 8.4506 325° Northwest  Level Estimated
12:56PM -0.5610 8.3834 325° Northwest  Level Estimated
12:57PM -0.4658 8.3162 325° Northwest  Level Estimated
12:58PM -0.3705 8.2490 325° Northwest  Level Estimated
12:59PM -0.2753 8.1818 325° Northwest  Level Estimated
01:00PM -0.1800 8.1146 325° Northwest  Level Estimated
01:01PM -0.0848 8.0474 325° Northwest  Level Estimated
01:02PM 0.0105 7.9802 325° Northwest  Level Estimated
01:03PM 0.1057 7.9129 325° Northwest  Level Estimated
01:04PM 0.2010 7.8457 325° Northwest  Level Estimated
01:05PM 0.2962 7.7785 325° Northwest  Level Estimated
01:06PM 0.3915 7.7113 325° Northwest  Level Estimated
01:07PM 0.4867 7.6441 325° Northwest  Level Estimated
01:08PM 0.5820 7.5769 325° Northwest  Level Estimated
01:09PM 0.6772 7.5097 325° Northwest  Level Estimated
01:10PM 0.7725 7.4425 325° Northwest  Level Estimated
01:11PM 0.8677 7.3752 325° Northwest  Level Estimated
01:12PM 0.9630 7.3080 325° Northwest  Level Estimated
01:13PM 1.0582 7.2408 325° Northwest  Level Estimated
01:14PM 1.1535 7.1736 325° Northwest  Level Estimated
01:15PM 1.2487 7.1063 325° Northwest  Level Estimated
01:16PM 1.3439 7.0391 325° Northwest  Level Estimated
01:17PM 1.4392 6.9718 325° Northwest  Level Estimated
01:18PM 1.5344 6.9046 325° Northwest  Level Estimated
01:19PM 1.6296 6.8373 325° Northwest  Level Estimated
01:20PM 1.7249 6.7701 325° Northwest  Level Estimated
01:21PM 1.8201 6.7028 325° Northwest  Level Estimated
01:22PM 1.9153 6.6355 325° Northwest  Level Estimated
01:23PM 2.0105 6.5683 325° Northwest  Level Estimated
01:24PM 2.1058 6.5010 325° Northwest  Level Estimated
01:25PM 2.2010 6.4337 325° Northwest  Level Estimated
01:26PM 2.2962 6.3664 325° Northwest  Level Estimated
01:27PM 2.3914 6.2990 325° Northwest  Level Estimated
01:28PM 2.4866 6.2317 325° Northwest  Level Estimated
01:29PM 2.5818 6.1644 325° Northwest  Level Estimated
01:30PM 2.6770 6.0970 325° Northwest  Level Estimated
01:31PM 2.7722 6.0297 325° Northwest  Level Estimated
01:32PM 2.8674 5.9623 325° Northwest  Level Estimated
01:33PM 2.9626 5.8949 325° Northwest  Level Estimated
01:34PM 3.0578 5.8275 325° Northwest  Level Estimated
01:35PM 3.1530 5.7601 325° Northwest  Level Estimated
01:36PM 3.2481 5.6927 325° Northwest  Level Estimated
01:37PM 3.3433 5.6253 325° Northwest  Level Estimated
01:38PM 3.4385 5.5578 325° Northwest  Level Estimated
01:39PM 3.5336 5.4904 325° Northwest  Level Estimated
01:40PM 3.6288 5.4229 325° Northwest  Level Estimated
01:41PM 3.7239 5.3554 325° Northwest  Level Estimated
01:42PM 3.8191 5.2879 325° Northwest  Level Estimated
01:43PM 3.9142 5.2204 325° Northwest  Level Estimated
01:44PM 4.0094 5.1529 325° Northwest  Level Estimated
01:45PM 4.1045 5.0854 325° Northwest  Level Estimated
01:46PM 4.1996 5.0178 325° Northwest  Level Estimated
01:47PM 4.2948 4.9502 325° Northwest  Level Estimated
01:48PM 4.3899 4.8826 325° Northwest  Level Estimated
01:49PM 4.4850 4.8150 325° Northwest  Level Estimated
01:50PM 4.5801 4.7474 325° Northwest  Level Estimated
01:51PM 4.6752 4.6797 325° Northwest  Level Estimated
01:52PM 4.7703 4.6121 325° Northwest  Level Estimated
01:53PM 4.8653 4.5444 325° Northwest  Level Estimated
01:54PM 4.9604 4.4767 325° Northwest  Level Estimated
01:55PM 5.0555 4.4090 325° Northwest  Level Estimated
01:56PM 5.1506 4.3412 325° Northwest  Level Estimated
01:57PM 5.2456 4.2735 325° Northwest  Level Estimated
01:58PM 5.3407 4.2057 325° Northwest  Level Estimated
01:59PM 5.4357 4.1379 325° Northwest  Level Estimated
02:00PM 5.5307 4.0701 325° Northwest  Level Estimated
02:01PM 5.6258 4.0022 325° Northwest  Level Estimated
02:02PM 5.7208 3.9344 325° Northwest  Level Estimated
02:03PM 5.8158 3.8665 325° Northwest  Level Estimated
02:04PM 5.9108 3.7985 325° Northwest  Level Estimated
02:05PM 6.0058 3.7306 325° Northwest  Level Estimated
02:06PM 6.1007 3.6627 325° Northwest  Level Estimated
02:07PM 6.1957 3.5947 325° Northwest  Level Estimated
02:08PM 6.2907 3.5266 325° Northwest  Level Estimated
02:09PM 6.3857 3.4586 325° Northwest  Level Estimated
02:10PM 6.4806 3.3906 325° Northwest  Level Estimated
02:11PM 6.5755 3.3225 325° Northwest  Level Estimated
02:12PM 6.5774 3.3212 324° Northwest  Level Estimated
02:13PM 6.5774 3.3212 256° West  Level Estimated
02:14PM 6.5774 3.3212 256° West  Level Estimated
02:15PM 6.5774 3.3212 256° West  Level Estimated
02:16PM 6.5774 3.3212 256° West  Level Estimated
02:17PM 6.5774 3.3212 256° West  Level Estimated
02:18PM 6.5774 3.3212 256° West  Level Estimated
02:19PM 6.5774 3.3212 256° West  Level Estimated
02:20PM 6.5774 3.3212 256° West  Level Estimated
02:21PM 6.5774 3.3212 256° West  Level Estimated
02:22PM 6.5774 3.3212 256° West  Level Estimated
02:23PM 6.5774 3.3212 256° West  Level Estimated
02:24PM 6.5774 3.3212 256° West  Level Estimated
02:25PM 6.5774 3.3212 256° West  Level Estimated
02:26PM 6.5774 3.3212 256° West  Level Estimated
02:27PM 6.5774 3.3212 256° West  Level Estimated